createdAt,value
2023-05-27T00:00:25.826Z,29.38
2023-05-27T00:02:53.257Z,25.08
2023-05-27T00:05:20.694Z,37.20
2023-05-27T00:07:48.142Z,30.75
2023-05-27T00:10:16.221Z,42.78
2023-05-27T00:12:43.567Z,24.77
2023-05-27T00:15:11.553Z,31.05
2023-05-27T00:18:08.688Z,24.42
2023-05-27T00:20:36.518Z,30.90
2023-05-27T00:23:04.179Z,29.65
2023-05-27T00:25:32.660Z,28.00
2023-05-27T00:28:00.675Z,43.15
2023-05-27T00:30:28.421Z,29.33
2023-05-27T00:32:56.700Z,32.63
2023-05-27T00:35:26.892Z,35.45
2023-05-27T00:37:55.902Z,27.20
2023-05-27T00:40:25.923Z,33.92
2023-05-27T00:42:53.389Z,31.30
2023-05-27T00:45:21.010Z,36.72
2023-05-27T00:47:48.546Z,28.15
2023-05-27T00:50:16.157Z,31.17
2023-05-27T00:52:43.590Z,33.65
2023-05-27T00:55:11.194Z,35.03
2023-05-27T00:57:38.876Z,29.13
2023-05-27T01:00:12.478Z,31.15
2023-05-27T01:02:43.939Z,26.45
2023-05-27T01:05:15.311Z,31.42
2023-05-27T01:07:42.759Z,38.83
2023-05-27T01:10:15.261Z,44.05
2023-05-27T01:13:00.177Z,25.35
2023-05-27T01:15:31.935Z,32.25
2023-05-27T01:18:03.785Z,29.33
2023-05-27T01:20:32.111Z,33.88
2023-05-27T01:58:26.704Z,31.63
2023-05-27T02:00:54.094Z,21.67
2023-05-27T02:03:21.537Z,33.67
2023-05-27T02:05:48.968Z,26.58
2023-05-27T02:08:16.337Z,29.23
2023-05-27T02:10:43.790Z,31.40
2023-05-27T02:13:11.783Z,28.95
2023-05-27T02:15:39.321Z,36.47
2023-05-27T02:18:07.032Z,39.00
2023-05-27T02:20:34.531Z,31.73
2023-05-27T02:23:14.271Z,29.90
2023-05-27T02:25:41.625Z,26.83
2023-05-27T02:28:09.106Z,39.03
2023-05-27T02:30:36.606Z,37.92
2023-05-27T02:33:04.160Z,38.53
2023-05-27T02:35:31.591Z,28.60
2023-05-27T02:37:59.153Z,36.85
2023-05-27T02:40:27.800Z,29.13
2023-05-27T02:42:56.233Z,43.97
2023-05-27T02:45:24.779Z,28.63
2023-05-27T02:47:52.423Z,34.28
2023-05-27T02:50:19.948Z,30.48
2023-05-27T02:52:47.323Z,33.25
2023-05-27T02:55:14.733Z,32.45
2023-05-27T02:57:42.028Z,37.90
2023-05-27T03:00:10.425Z,34.00
2023-05-27T03:02:37.927Z,32.17
2023-05-27T03:05:06.080Z,42.45
2023-05-27T03:07:33.543Z,37.17
2023-05-27T03:10:00.880Z,23.20
2023-05-27T03:12:28.431Z,39.08
2023-05-27T03:14:56.067Z,25.40
2023-05-27T03:17:23.467Z,34.25
2023-05-27T03:19:50.920Z,31.88
2023-05-27T03:22:18.848Z,32.88
2023-05-27T03:24:46.247Z,28.88
2023-05-27T03:27:13.596Z,35.22
2023-05-27T03:29:42.072Z,43.40
2023-05-27T03:32:11.619Z,32.33
2023-05-27T03:34:39.045Z,38.28
2023-05-27T03:37:06.436Z,30.17
2023-05-27T03:39:33.884Z,29.45
2023-05-27T03:42:01.620Z,36.05
2023-05-27T03:44:29.013Z,27.67
2023-05-27T03:46:56.636Z,30.55
2023-05-27T03:49:24.197Z,40.72
2023-05-27T03:51:51.861Z,29.70
2023-05-27T03:54:19.284Z,28.15
2023-05-27T03:56:46.659Z,33.70
2023-05-27T03:59:14.371Z,43.75
2023-05-27T04:01:42.495Z,34.55
2023-05-27T04:04:09.959Z,25.80
2023-05-27T04:06:37.455Z,29.98
2023-05-27T04:09:04.845Z,27.77
2023-05-27T04:11:32.418Z,22.38
2023-05-27T04:13:59.815Z,40.25
2023-05-27T04:16:27.257Z,28.88
2023-05-27T04:18:54.766Z,31.52
2023-05-27T04:21:22.276Z,30.38
2023-05-27T04:23:49.677Z,27.20
2023-05-27T04:26:17.201Z,34.42
2023-05-27T04:28:46.419Z,32.38
2023-05-27T04:31:14.311Z,29.67
2023-05-27T04:33:41.969Z,40.05
2023-05-27T04:36:10.163Z,26.55
2023-05-27T04:38:37.785Z,32.00
2023-05-27T04:41:05.365Z,28.38
2023-05-27T04:43:32.807Z,31.70
2023-05-27T04:46:03.694Z,29.63
2023-05-27T04:48:31.086Z,33.00
2023-05-27T04:50:58.450Z,33.28
2023-05-27T04:53:26.171Z,30.23
2023-05-27T04:55:53.769Z,30.52
2023-05-27T04:58:21.811Z,29.42
2023-05-27T05:00:54.591Z,31.88
2023-05-27T05:03:23.001Z,26.83
2023-05-27T05:05:54.987Z,23.65
2023-05-27T05:08:22.373Z,40.03
2023-05-27T05:10:50.637Z,29.67
2023-05-27T05:13:18.512Z,33.92
2023-05-27T05:15:45.860Z,26.92
2023-05-27T05:18:13.762Z,30.38
2023-05-27T05:20:41.770Z,30.27
2023-05-27T05:23:10.570Z,27.63
2023-05-27T05:25:39.108Z,27.45
2023-05-27T05:28:07.402Z,32.50
2023-05-27T05:30:34.778Z,26.60
2023-05-27T05:33:02.294Z,31.30
2023-05-27T05:35:29.663Z,38.67
2023-05-27T05:37:57.031Z,30.42
2023-05-27T05:40:24.919Z,30.50
2023-05-27T05:42:52.261Z,29.55
2023-05-27T05:45:19.840Z,32.40
2023-05-27T05:47:47.305Z,26.77
2023-05-27T05:50:14.762Z,30.50
2023-05-27T05:52:42.212Z,34.83
2023-05-27T05:55:09.830Z,35.90
2023-05-27T05:57:37.445Z,26.48
2023-05-27T06:00:06.426Z,21.17
2023-05-27T06:02:33.921Z,27.48
2023-05-27T06:05:01.398Z,30.30
2023-05-27T06:07:28.860Z,32.55
2023-05-27T06:09:56.497Z,20.10
2023-05-27T06:12:25.619Z,31.85
2023-05-27T06:14:53.138Z,25.38
2023-05-27T06:17:20.500Z,31.67
2023-05-27T06:19:48.975Z,36.00
2023-05-27T06:22:17.100Z,30.92
2023-05-27T06:24:44.480Z,32.65
2023-05-27T06:27:11.942Z,23.98
2023-05-27T06:29:39.510Z,40.65
2023-05-27T06:32:07.409Z,25.52
2023-05-27T06:34:35.940Z,30.63
2023-05-27T06:37:03.577Z,24.00
2023-05-27T06:39:30.889Z,25.30
2023-05-27T06:41:58.252Z,33.35
2023-05-27T06:44:25.757Z,40.22
2023-05-27T06:46:53.820Z,23.85
2023-05-27T06:49:21.444Z,25.58
2023-05-27T06:51:48.899Z,20.40
2023-05-27T06:54:16.292Z,29.77
2023-05-27T06:56:43.628Z,20.95
2023-05-27T06:59:11.063Z,27.60
2023-05-27T07:01:40.999Z,25.65
2023-05-27T07:04:08.415Z,34.30
2023-05-27T07:06:39.009Z,18.38
2023-05-27T07:09:06.518Z,25.80
2023-05-27T07:11:34.462Z,22.83
2023-05-27T07:14:02.154Z,22.83
2023-05-27T07:16:29.764Z,21.52
2023-05-27T07:18:58.766Z,29.58
2023-05-27T07:21:26.124Z,24.58
2023-05-27T07:23:53.935Z,22.40
2023-05-27T07:26:21.350Z,29.80
2023-05-27T07:28:48.740Z,30.58
2023-05-27T07:31:16.263Z,28.65
2023-05-27T07:33:43.658Z,36.20
2023-05-27T07:36:11.530Z,27.38
2023-05-27T07:38:38.868Z,24.88
2023-05-27T07:41:06.302Z,30.42
2023-05-27T07:43:33.724Z,29.35
2023-05-27T07:46:01.127Z,26.00
2023-05-27T07:48:29.824Z,21.55
2023-05-27T07:50:57.872Z,27.05
2023-05-27T07:53:25.240Z,39.50
2023-05-27T07:55:52.590Z,30.60
2023-05-27T07:58:20.033Z,29.83
2023-05-27T08:00:47.494Z,42.65
2023-05-27T08:03:15.133Z,40.88
2023-05-27T08:05:42.952Z,44.47
2023-05-27T08:08:10.320Z,62.47
2023-05-27T08:10:37.772Z,45.42
2023-05-27T08:13:05.346Z,43.00
2023-05-27T08:15:33.195Z,48.10
2023-05-27T08:18:00.852Z,36.58
2023-05-27T08:20:31.019Z,45.80
2023-05-27T08:22:58.500Z,34.50
2023-05-27T08:25:25.977Z,40.92
2023-05-27T08:27:55.071Z,52.00
2023-05-27T08:30:23.134Z,43.50
2023-05-27T08:32:52.566Z,36.75
2023-05-27T08:35:21.209Z,45.78
2023-05-27T08:37:48.732Z,45.70
2023-05-27T08:40:18.816Z,52.70
2023-05-27T08:42:48.304Z,52.08
2023-05-27T08:45:16.147Z,55.05
2023-05-27T08:47:43.659Z,44.55
2023-05-27T08:50:12.620Z,39.20
2023-05-27T08:52:53.268Z,43.47
2023-05-27T08:55:24.208Z,34.72
2023-05-27T08:57:55.411Z,32.67
2023-05-27T09:00:23.669Z,39.22
2023-05-27T09:02:51.390Z,43.60
2023-05-27T09:05:19.689Z,35.75
2023-05-27T09:07:47.222Z,31.05
2023-05-27T09:10:14.907Z,38.13
2023-05-27T09:12:46.059Z,28.75
2023-05-27T09:15:14.973Z,28.30
2023-05-27T09:17:44.318Z,41.65
2023-05-27T09:20:14.245Z,20.75
2023-05-27T09:22:42.596Z,26.88
2023-05-27T09:25:12.221Z,38.35
2023-05-27T09:27:44.901Z,25.13
2023-05-27T09:30:13.464Z,30.27
2023-05-27T09:32:41.246Z,30.85
2023-05-27T09:35:09.697Z,28.52
2023-05-27T09:37:37.671Z,28.90
2023-05-27T09:40:11.272Z,29.33
2023-05-27T09:42:45.678Z,29.63
2023-05-27T09:45:15.889Z,33.25
2023-05-27T09:47:54.988Z,40.35
2023-05-27T09:50:23.335Z,21.92
2023-05-27T09:53:05.076Z,31.40
2023-05-27T09:55:39.269Z,34.72
2023-05-27T09:58:07.272Z,22.30
2023-05-27T10:00:36.026Z,16.38
2023-05-27T10:03:04.955Z,28.80
2023-05-27T10:05:32.829Z,23.75
2023-05-27T10:08:13.261Z,24.55
2023-05-27T10:10:47.615Z,27.80
2023-05-27T10:13:17.612Z,24.80
2023-05-27T10:15:51.648Z,25.23
2023-05-27T10:18:32.008Z,27.55
2023-05-27T10:21:00.827Z,22.30
2023-05-27T10:23:29.956Z,26.25
2023-05-27T10:26:02.188Z,20.73
2023-05-27T10:28:32.978Z,20.08
2023-05-27T10:31:08.599Z,21.50
2023-05-27T10:33:37.724Z,26.02
2023-05-27T10:36:09.201Z,14.07
2023-05-27T10:38:37.731Z,19.98
2023-05-27T10:41:07.784Z,25.75
2023-05-27T10:43:36.195Z,27.10
2023-05-27T10:46:11.387Z,19.33
2023-05-27T10:48:41.396Z,19.50
2023-05-27T10:51:10.484Z,23.08
2023-05-27T10:53:38.335Z,17.65
2023-05-27T10:56:06.178Z,23.30
2023-05-27T10:58:38.600Z,24.70
2023-05-27T11:01:12.897Z,19.73
2023-05-27T11:03:47.586Z,18.80
2023-05-27T11:06:17.752Z,20.73
2023-05-27T11:08:45.329Z,19.70
2023-05-27T11:11:14.059Z,16.73
2023-05-27T11:13:51.084Z,18.98
2023-05-27T11:16:19.598Z,23.10
2023-05-27T11:18:48.723Z,17.40
2023-05-27T11:21:17.623Z,19.02
2023-05-27T11:23:47.645Z,19.10
2023-05-27T11:26:21.164Z,18.27
2023-05-27T11:28:55.929Z,19.98
2023-05-27T11:31:29.085Z,18.08
2023-05-27T11:33:56.501Z,16.65
2023-05-27T11:36:28.150Z,14.82
2023-05-27T11:38:57.854Z,21.15
2023-05-27T11:41:28.844Z,15.98
2023-05-27T11:44:00.657Z,19.67
2023-05-27T11:46:45.167Z,17.98
2023-05-27T11:49:17.804Z,18.27
2023-05-27T11:51:50.420Z,17.63
2023-05-27T11:54:23.174Z,23.23
2023-05-27T11:56:51.413Z,25.25
2023-05-27T11:59:20.394Z,22.70
2023-05-27T12:01:48.059Z,15.73
2023-05-27T12:04:17.974Z,21.98
2023-05-27T12:06:47.370Z,18.95
2023-05-27T12:09:16.212Z,17.73
2023-05-27T12:11:43.789Z,20.83
2023-05-27T12:14:11.551Z,21.52
2023-05-27T12:16:39.156Z,14.48
2023-05-27T12:19:06.610Z,19.70
2023-05-27T12:21:34.944Z,24.83
2023-05-27T12:24:02.282Z,16.88
2023-05-27T12:26:29.664Z,19.90
2023-05-27T12:28:58.036Z,13.95
2023-05-27T12:31:25.683Z,15.38
2023-05-27T12:33:53.176Z,19.38
2023-05-27T12:36:20.701Z,18.52
2023-05-27T12:38:51.033Z,17.75
2023-05-27T12:41:18.503Z,18.85
2023-05-27T12:43:45.853Z,22.67
2023-05-27T12:46:14.724Z,23.05
2023-05-27T12:48:42.188Z,20.13
2023-05-27T12:51:12.348Z,13.85
2023-05-27T12:53:40.135Z,25.70
2023-05-27T12:56:07.690Z,16.80
2023-05-27T12:58:35.433Z,14.38
2023-05-27T13:01:02.931Z,15.10
2023-05-27T13:03:30.384Z,12.70
2023-05-27T13:05:58.575Z,13.25
2023-05-27T13:08:26.201Z,14.18
2023-05-27T13:10:53.797Z,15.30
2023-05-27T13:13:24.282Z,14.70
2023-05-27T13:15:51.914Z,12.02
2023-05-27T13:18:19.453Z,14.77
2023-05-27T13:20:46.941Z,13.77
2023-05-27T13:23:14.298Z,20.13
2023-05-27T13:25:41.720Z,15.70
2023-05-27T13:28:09.288Z,15.68
2023-05-27T13:30:36.588Z,20.58
2023-05-27T13:33:04.121Z,22.60
2023-05-27T13:35:31.659Z,17.02
2023-05-27T13:38:04.745Z,14.65
2023-05-27T13:40:33.313Z,19.23
2023-05-27T13:43:00.759Z,15.65
2023-05-27T13:45:28.171Z,13.23
2023-05-27T13:47:56.305Z,25.05
2023-05-27T13:50:23.816Z,16.25
2023-05-27T13:52:51.337Z,18.27
2023-05-27T13:55:18.938Z,19.02
2023-05-27T13:57:46.307Z,13.52
2023-05-27T14:00:14.665Z,14.00
2023-05-27T14:02:42.166Z,14.85
2023-05-27T14:05:10.964Z,17.75
2023-05-27T14:07:44.270Z,18.48
2023-05-27T14:10:12.080Z,19.40
2023-05-27T14:12:40.414Z,13.90
2023-05-27T14:15:10.640Z,20.17
2023-05-27T14:17:40.277Z,25.50
2023-05-27T14:20:12.309Z,16.75
2023-05-27T14:22:43.697Z,19.60
2023-05-27T14:25:11.201Z,17.83
2023-05-27T14:27:42.032Z,14.75
2023-05-27T14:30:15.771Z,23.55
2023-05-27T14:32:43.171Z,15.45
2023-05-27T14:35:10.859Z,19.67
2023-05-27T14:37:38.215Z,15.95
2023-05-27T14:40:06.264Z,22.33
2023-05-27T14:42:33.607Z,27.75
2023-05-27T14:45:00.979Z,20.20
2023-05-27T14:47:28.398Z,18.35
2023-05-27T14:49:55.925Z,21.60
2023-05-27T14:52:23.550Z,15.90
2023-05-27T14:54:50.921Z,16.58
2023-05-27T14:57:20.977Z,20.67
2023-05-27T14:59:48.825Z,11.60
2023-05-27T15:02:17.250Z,25.98
2023-05-27T15:04:44.853Z,15.82
2023-05-27T15:07:12.296Z,19.63
2023-05-27T15:09:39.660Z,13.55
2023-05-27T15:12:08.047Z,21.00
2023-05-27T15:14:35.714Z,15.48
2023-05-27T15:17:03.696Z,22.95
2023-05-27T15:19:31.497Z,20.30
2023-05-27T15:21:59.042Z,19.90
2023-05-27T15:24:26.638Z,18.58
2023-05-27T15:26:55.008Z,13.20
2023-05-27T15:29:22.504Z,19.15
2023-05-27T15:31:49.912Z,14.32
2023-05-27T15:34:17.528Z,21.70
2023-05-27T15:36:45.156Z,15.55
2023-05-27T15:39:13.560Z,14.80
2023-05-27T15:41:41.875Z,18.23
2023-05-27T15:44:09.274Z,18.00
2023-05-27T15:46:37.016Z,16.00
2023-05-27T15:49:04.652Z,17.58
2023-05-27T15:51:32.074Z,20.67
2023-05-27T15:53:59.538Z,15.90
2023-05-27T15:56:26.882Z,9.90
2023-05-27T15:58:54.221Z,14.98
2023-05-27T16:01:24.000Z,18.83
2023-05-27T16:03:51.334Z,19.15
2023-05-27T16:06:19.528Z,14.88
2023-05-27T16:08:48.327Z,13.15
2023-05-27T16:11:15.804Z,18.30
2023-05-27T16:13:43.212Z,17.05
2023-05-27T16:16:10.648Z,20.08
2023-05-27T16:18:38.070Z,18.95
2023-05-27T16:21:06.297Z,20.35
2023-05-27T16:23:33.680Z,22.15
2023-05-27T16:26:01.082Z,9.32
2023-05-27T16:28:28.477Z,15.75
2023-05-27T16:31:01.133Z,19.73
2023-05-27T16:33:30.577Z,12.63
2023-05-27T16:35:58.008Z,11.98
2023-05-27T16:38:25.804Z,15.18
2023-05-27T16:40:53.334Z,18.77
2023-05-27T16:43:23.069Z,17.60
2023-05-27T16:45:50.669Z,11.45
2023-05-27T16:48:18.511Z,16.20
2023-05-27T16:50:45.985Z,14.38
2023-05-27T16:53:13.340Z,16.13
2023-05-27T16:55:40.737Z,15.73
2023-05-27T16:58:08.139Z,13.70
2023-05-27T17:00:37.008Z,11.77
2023-05-27T17:03:04.642Z,14.93
2023-05-27T17:05:32.068Z,13.18
2023-05-27T17:08:02.448Z,19.02
2023-05-27T17:10:30.481Z,25.83
2023-05-27T17:12:59.013Z,11.52
2023-05-27T17:15:26.809Z,16.17
2023-05-27T17:17:54.338Z,15.00
2023-05-27T17:20:23.212Z,16.48
2023-05-27T17:22:51.296Z,16.45
2023-05-27T17:25:18.633Z,16.00
2023-05-27T17:27:46.001Z,11.88
2023-05-27T17:30:14.044Z,11.90
2023-05-27T17:32:42.110Z,13.57
2023-05-27T17:35:10.199Z,15.05
2023-05-27T17:37:37.710Z,11.50
2023-05-27T17:40:08.831Z,16.20
2023-05-27T17:42:36.965Z,10.02
2023-05-27T17:45:04.745Z,14.63
2023-05-27T17:47:34.860Z,14.18
2023-05-27T17:50:03.904Z,14.57
2023-05-27T17:52:32.694Z,15.13
2023-05-27T17:55:00.101Z,15.82
2023-05-27T17:57:29.398Z,12.70
2023-05-27T17:59:56.868Z,11.23
2023-05-27T18:02:24.394Z,21.70
2023-05-27T18:04:51.914Z,56.22
2023-05-27T18:07:22.449Z,22.00
2023-05-27T18:09:49.995Z,12.05
2023-05-27T18:12:17.538Z,22.40
2023-05-27T18:14:44.908Z,18.98
2023-05-27T18:17:17.134Z,13.30
2023-05-27T18:19:44.658Z,11.30
2023-05-27T18:22:11.972Z,16.02
2023-05-27T18:24:39.358Z,19.52
2023-05-27T18:27:07.098Z,11.23
2023-05-27T18:29:34.457Z,12.70
2023-05-27T18:32:01.843Z,13.90
2023-05-27T18:34:31.650Z,18.27
2023-05-27T18:36:59.082Z,14.38
2023-05-27T18:39:26.665Z,16.15
2023-05-27T18:41:54.048Z,16.75
2023-05-27T18:44:21.481Z,16.45
2023-05-27T18:46:49.142Z,16.85
2023-05-27T18:49:17.672Z,15.30
2023-05-27T18:51:47.572Z,15.57
2023-05-27T18:54:15.012Z,12.93
2023-05-27T18:56:42.451Z,18.85
2023-05-27T18:59:09.798Z,15.02
2023-05-27T19:01:38.068Z,16.95
2023-05-27T19:04:05.665Z,18.10
2023-05-27T19:06:33.877Z,22.77
2023-05-27T19:09:01.630Z,15.23
2023-05-27T19:11:29.065Z,18.42
2023-05-27T19:13:56.527Z,19.17
2023-05-27T19:16:23.995Z,18.85
2023-05-27T19:18:51.856Z,22.88
2023-05-27T19:21:19.247Z,22.83
2023-05-27T19:23:46.645Z,13.73
2023-05-27T19:26:14.060Z,17.25
2023-05-27T19:28:42.301Z,20.67
2023-05-27T19:31:10.107Z,19.08
2023-05-27T19:33:37.561Z,16.10
2023-05-27T19:36:05.264Z,18.27
2023-05-27T19:38:32.616Z,21.35
2023-05-27T19:41:01.174Z,20.50
2023-05-27T19:43:32.327Z,17.35
2023-05-27T19:45:59.712Z,18.98
2023-05-27T19:48:27.191Z,13.98
2023-05-27T19:50:54.737Z,21.02
2023-05-27T19:53:22.186Z,17.08
2023-05-27T19:55:49.720Z,16.33
2023-05-27T19:58:17.114Z,22.67
2023-05-27T20:00:44.618Z,25.52
2023-05-27T20:03:12.281Z,23.70
2023-05-27T20:05:39.991Z,24.38
2023-05-27T20:08:07.464Z,18.23
2023-05-27T20:10:34.939Z,26.08
2023-05-27T20:13:03.826Z,22.05
2023-05-27T20:15:31.554Z,14.85
2023-05-27T20:18:00.565Z,25.02
2023-05-27T20:20:33.171Z,16.25
2023-05-27T20:23:00.767Z,16.92
2023-05-27T20:25:28.640Z,18.67
2023-05-27T20:27:56.033Z,22.20
2023-05-27T20:30:23.939Z,17.42
2023-05-27T20:32:51.407Z,16.80
2023-05-27T20:35:18.816Z,18.67
2023-05-27T20:37:46.173Z,16.63
2023-05-27T20:40:14.049Z,12.38
2023-05-27T20:42:41.608Z,15.57
2023-05-27T20:45:09.184Z,13.15
2023-05-27T20:47:38.576Z,19.88
2023-05-27T20:50:06.653Z,26.23
2023-05-27T20:52:34.075Z,16.77
2023-05-27T20:55:01.842Z,13.18
2023-05-27T20:57:29.443Z,13.73
2023-05-27T20:59:57.221Z,21.25
2023-05-27T21:02:25.914Z,19.35
2023-05-27T21:04:53.529Z,14.35
2023-05-27T21:07:21.495Z,20.98
2023-05-27T21:09:48.861Z,19.35
2023-05-27T21:12:16.280Z,21.98
2023-05-27T21:14:43.614Z,15.48
2023-05-27T21:17:11.000Z,20.42
2023-05-27T21:19:38.332Z,18.30
2023-05-27T21:22:06.903Z,14.35
2023-05-27T21:24:34.353Z,26.63
2023-05-27T21:27:01.974Z,20.77
2023-05-27T21:29:29.472Z,28.50
2023-05-27T21:31:59.086Z,19.58
2023-05-27T21:34:26.537Z,18.02
2023-05-27T21:36:53.930Z,22.65
2023-05-27T21:39:22.006Z,18.25
2023-05-27T21:41:49.473Z,26.38
2023-05-27T21:44:17.079Z,18.40
2023-05-27T21:46:44.456Z,21.48
2023-05-27T21:49:12.254Z,22.42
2023-05-27T21:51:39.868Z,27.25
2023-05-27T21:54:07.408Z,16.80
2023-05-27T21:56:34.777Z,26.40
2023-05-27T21:59:02.663Z,27.55
2023-05-27T22:01:30.267Z,22.02
2023-05-27T22:03:57.881Z,16.98
2023-05-27T22:06:29.385Z,24.80
2023-05-27T22:08:56.780Z,25.17
2023-05-27T22:11:24.102Z,16.70
2023-05-27T22:13:54.125Z,25.40
2023-05-27T22:16:21.639Z,22.08
2023-05-27T22:18:49.198Z,24.05
2023-05-27T22:21:28.128Z,20.20
2023-05-27T22:23:57.309Z,18.83
2023-05-27T22:26:24.750Z,16.83
2023-05-27T22:28:52.568Z,19.10
2023-05-27T22:31:20.003Z,14.93
2023-05-27T22:33:47.907Z,26.00
2023-05-27T22:36:15.747Z,26.85
2023-05-27T22:38:43.522Z,22.85
2023-05-27T22:41:11.440Z,17.38
2023-05-27T22:43:39.038Z,20.63
2023-05-27T22:46:06.411Z,21.55
2023-05-27T22:48:33.747Z,18.98
2023-05-27T22:51:01.269Z,14.93
2023-05-27T22:53:28.638Z,22.52
2023-05-27T22:55:56.333Z,28.88
2023-05-27T22:58:24.090Z,20.90
2023-05-27T23:00:51.523Z,22.75
2023-05-27T23:03:19.590Z,15.45
2023-05-27T23:05:47.107Z,19.52
2023-05-27T23:08:14.551Z,20.60
2023-05-27T23:10:41.932Z,22.42
2023-05-27T23:13:11.141Z,22.20
2023-05-27T23:15:38.617Z,19.92
2023-05-27T23:18:06.395Z,42.67
2023-05-27T23:20:33.915Z,23.48
2023-05-27T23:23:01.368Z,21.92
2023-05-27T23:25:29.037Z,23.92
2023-05-27T23:27:56.666Z,25.63
2023-05-27T23:30:24.041Z,17.38
2023-05-27T23:32:51.886Z,23.48
2023-05-27T23:35:19.976Z,17.42
2023-05-27T23:37:47.537Z,20.65
2023-05-27T23:40:15.006Z,20.45
2023-05-27T23:42:43.463Z,16.83
2023-05-27T23:45:12.155Z,20.77
2023-05-27T23:47:39.693Z,15.68
2023-05-27T23:50:09.013Z,22.05
2023-05-27T23:52:36.461Z,26.25
2023-05-27T23:55:04.274Z,29.92
2023-05-27T23:57:31.952Z,22.05
